Flag for France

Past Weather in 42°31'04.3"N, 3°06'40.8"E, France — Yesterday and Last 2 Weeks

Currently: 57 °F. Clear. (Weather station: Perpignan Airport, France). See more current weather

Past Weather in 42°31'04.3"N, 3°06'40.8"E — Graph

°F

42°31'04.3"N, 3°06'40.8"E Temperature Yesterday

Maximum temperature yesterday: 66 °F (at 2:00 pm)
Minimum temperature yesterday: 57 °F (at 6:30 am)
Average temperature yesterday: 61 °F

High & Low Weather Summary for the Past Weeks

 TemperatureHumidityPressure
High81 °F (May 11, 4:00 pm)100% (May 19, 1:00 am)30.12 "Hg (May 19, 1:00 am)
Low48 °F (May 16, 6:00 am)34% (May 11, 4:00 pm)29.68 "Hg (May 14, 1:30 am)
Average63 °F72%29.91 "Hg
* Reported May 10 12:00 am — May 25 12:30 am, 42°31'04.3"N, 3°06'40.8"E. Weather by CustomWeather, © 2024

Note: Actual official high and low records may vary slightly from our data, if they occured in-between our weather recording intervals... More about our weather records

42°31'04.3"N, 3°06'40.8"E Weather History for the Previous 24 Hours

Scroll right to see more
 ConditionsComfort  
Time TempWeatherWind HumidityBarometerVisibility
12:30 am
Sat, May 25
55 °FPassing clouds.6 mph94%30.07 "HgN/A
12:00 am57 °FClear.5 mph94%30.07 "Hg10 mi
11:30 pm
Fri, May 24
57 °FPassing clouds.5 mph94%30.07 "HgN/A
11:00 pm59 °FClear.6 mph88%30.09 "Hg10 mi
10:30 pm59 °FClear.6 mph94%30.07 "Hg10 mi
10:00 pm59 °FPassing clouds.5 mph94%30.07 "HgN/A
9:30 pm61 °FPassing clouds.6 mph88%30.07 "HgN/A
9:00 pm63 °FSunny.6 mph83%30.07 "Hg10 mi
8:30 pm63 °FPartly sunny.5 mph83%30.07 "HgN/A
8:00 pm63 °FPartly sunny.6 mph83%30.07 "HgN/A
7:30 pm63 °FLight rain. Broken clouds.7 mph83%30.07 "HgN/A
7:00 pm64 °FPartly sunny.5 mph73%30.07 "HgN/A
6:30 pm64 °FMostly cloudy.5 mph73%30.07 "HgN/A
6:00 pm63 °FMostly cloudy.6 mph77%30.07 "HgN/A
5:30 pm64 °FMostly cloudy.6 mph68%30.07 "HgN/A
5:00 pm64 °FMostly cloudy.7 mph73%30.07 "HgN/A
4:30 pm66 °FMore clouds than sun.6 mph68%30.07 "HgN/A
4:00 pm64 °FMostly cloudy.5 mph68%30.07 "HgN/A
3:30 pm66 °FPartly sunny.2 mph68%30.07 "HgN/A
3:00 pm66 °FPartly sunny.3 mph64%30.07 "HgN/A
2:30 pm66 °FBroken clouds.2 mph68%30.09 "HgN/A
2:00 pm66 °FPassing clouds.3 mph64%30.09 "HgN/A
1:00 pm63 °FPassing clouds.2 mph77%30.09 "HgN/A
12:30 pm61 °FBroken clouds.2 mph83%30.09 "HgN/A
12:00 pm59 °FLight rain. Broken clouds.2 mph88%30.12 "HgN/A
11:30 am59 °FBroken clouds.2 mph88%30.12 "HgN/A
11:00 am57 °FLight rain. Broken clouds.3 mph94%30.12 "HgN/A
10:30 am57 °FLight rain. More clouds than sun.3 mph88%30.12 "HgN/A
10:00 am57 °FRain. Fog.5 mph88%30.12 "Hg3 mi
9:30 am57 °FLight rain. Broken clouds.2 mph88%30.09 "Hg6 mi
9:00 am57 °FLight rain. Partly sunny.3 mph94%30.09 "HgN/A
8:30 am57 °FDrizzle. Partly sunny.5 mph94%30.09 "HgN/A
8:00 am57 °FOvercast.3 mph88%30.07 "HgN/A
7:30 am57 °FLight rain. Mostly cloudy.5 mph88%30.07 "HgN/A
7:00 am57 °FMostly cloudy.5 mph88%30.09 "HgN/A
6:30 am57 °FMostly cloudy.6 mph88%30.07 "HgN/A
6:00 am59 °FLight rain. Mostly cloudy.7 mph77%30.07 "HgN/A
5:30 am59 °FMostly cloudy.5 mph72%30.07 "HgN/A
5:00 am59 °FPassing clouds.6 mph72%30.07 "HgN/A
4:30 am59 °FPassing clouds.5 mph72%30.07 "HgN/A
4:00 am59 °FPassing clouds.8 mph72%30.07 "HgN/A
3:00 am61 °FPassing clouds.5 mph68%30.09 "HgN/A
2:30 am61 °FClear.7 mph68%30.09 "Hg10 mi
2:00 am61 °FPassing clouds.8 mph68%30.09 "HgN/A
1:30 am63 °FPassing clouds.7 mph64%30.09 "HgN/A
1:00 am63 °FClear.7 mph64%30.09 "Hg10 mi
Weather by CustomWeather, © 2024

See weather overview